Time;durP1;ratioP1;P1;durP2;ratioP2;P2;SDS_P1;SDS_P2;PMS_P1;PMS_P2;Temp;Humidity;BMP_temperature;BMP_pressure;BME280_temperature;BME280_humidity;BME280_pressure;Samples;Min_cycle;Max_cycle;Signal;HPM_P1;HPM_P2
2021/01/08 09:42:57;;;;;;;13.93;3.97;;;18.50;38.30;;;;;;3641028;39;20596;-77
2021/01/08 09:46:47;;;;;;;17.15;3.78;;;18.40;38.70;;;;;;3605778;39;20101;-78
2021/01/08 09:50:13;;;;;;;10.45;3.20;;;18.50;38.70;;;;;;3638524;31;20494;-77
2021/01/08 09:56:37;;;;;;;8.05;3.38;;;18.70;38.60;;;;;;3665904;32;20696;-77
2021/01/08 09:59:31;;;;;;;17.48;4.43;;;18.80;38.60;;;;;;3611718;39;20110;-78
2021/01/08 10:11:33;;;;;;;12.95;4.25;;;19.00;38.40;;;;;;3548581;32;20100;-78
2021/01/08 10:19:14;;;;;;;11.68;3.83;;;19.10;38.20;;;;;;3515446;33;20173;-77
2021/01/08 10:38:25;;;;;;;11.98;3.95;;;19.30;37.90;;;;;;3588190;32;20166;-78
2021/01/08 10:42:15;;;;;;;9.88;3.67;;;19.40;38.10;;;;;;3621608;32;20108;-79
2021/01/08 10:45:39;;;;;;;11.73;4.20;;;19.40;38.00;;;;;;3631757;31;20155;-78
2021/01/08 10:48:59;;;;;;;11.63;4.38;;;19.40;38.10;;;;;;3566988;40;20469;-78
2021/01/08 11:00:04;;;;;;;11.95;3.70;;;19.40;38.10;;;;;;3613073;39;20108;-79
2021/01/08 11:02:54;;;;;;;13.57;4.85;;;19.50;38.00;;;;;;3593363;39;20142;-78
2021/01/08 11:06:13;;;;;;;;;;;;;;;;;;;;;
2021/01/08 11:09:33;;;;;;;14.23;4.03;;;19.50;38.10;;;;;;3604189;32;20105;-78
2021/01/08 11:15:29;;;;;;;8.68;3.58;;;19.50;38.10;;;;;;3604197;32;20044;-78
2021/01/08 11:18:37;;;;;;;10.57;4.15;;;19.50;38.80;;;;;;3598932;39;20097;-78
2021/01/08 11:22:15;;;;;;;;;;;;;;;;;;;;;
2021/01/08 11:24:46;;;;;;;14.07;4.15;;;19.40;38.20;;;;;;3600456;39;20569;-77
2021/01/08 11:27:36;;;;;;;8.27;3.53;;;19.40;38.30;;;;;;3591766;32;20124;-78
2021/01/08 11:30:20;;;;;;;8.88;3.35;;;19.40;38.30;;;;;;3600368;32;20175;-78
2021/01/08 11:32:53;;;;;;;9.75;3.42;;;19.40;38.30;;;;;;3604213;32;20593;-78
2021/01/08 11:40:17;;;;;;;11.52;3.40;;;19.40;38.20;;;;;;3593254;39;20112;-78
2021/01/08 11:47:33;;;;;;;8.23;3.75;;;19.50;38.30;;;;;;3612320;39;20425;-78
2021/01/08 12:02:02;;;;;;;;;;;;;;;;;;;;;
2021/01/08 12:08:31;;;;;;;;;;;;;;;;;;;;;
2021/01/08 12:12:11;;;;;;;5.63;3.05;;;19.50;38.20;;;;;;3580005;32;20936;-78
2021/01/08 12:26:46;;;;;;;8.00;3.22;;;19.50;38.30;;;;;;3573064;32;20540;-78
2021/01/08 12:29:55;;;;;;;7.72;3.22;;;19.50;38.30;;;;;;3570119;40;20172;-78
2021/01/08 12:33:35;;;;;;;6.40;3.05;;;19.50;38.20;;;;;;3563344;40;20155;-78
2021/01/08 12:36:44;;;;;;;4.35;2.92;;;19.50;38.20;;;;;;3564096;33;20123;-78
2021/01/08 12:43:21;;;;;;;7.43;3.25;;;19.50;38.20;;;;;;3550629;32;20121;-79
2021/01/08 12:50:22;;;;;;;8.55;3.33;;;19.50;38.20;;;;;;3559515;40;20178;-78
2021/01/08 12:56:53;;;;;;;9.23;2.85;;;19.50;38.30;;;;;;3570095;39;20117;-78
2021/01/08 12:59:36;;;;;;;10.55;3.67;;;19.50;38.30;;;;;;3588598;32;20124;-77
2021/01/08 13:02:23;;;;;;;7.35;3.22;;;19.50;38.30;;;;;;3567741;32;20128;-79
2021/01/08 13:05:15;;;;;;;6.03;2.92;;;19.50;38.30;;;;;;3581635;32;20109;-78
2021/01/08 13:08:05;;;;;;;11.13;3.42;;;19.50;38.40;;;;;;3607191;39;20096;-78
2021/01/08 13:10:59;;;;;;;8.13;3.55;;;19.50;38.40;;;;;;3612300;32;20501;-78
2021/01/08 13:14:33;;;;;;;11.35;3.42;;;19.50;38.40;;;;;;3598040;39;20587;-78
2021/01/08 13:22:01;;;;;;;6.05;3.20;;;19.50;38.50;;;;;;3581021;39;20667;-78
2021/01/08 13:24:59;;;;;;;;;;;;;;;;;;;;;
2021/01/08 13:31:55;;;;;;;4.68;2.75;;;19.50;38.60;;;;;;3573769;39;20111;-78
2021/01/08 13:38:36;;;;;;;8.40;2.92;;;19.50;38.70;;;;;;3611431;39;20174;-77
2021/01/08 13:41:02;;;;;;;6.13;3.03;;;19.50;38.70;;;;;;3613211;32;20535;-77
2021/01/08 13:47:04;;;;;;;6.65;2.88;;;19.40;38.70;;;;;;3622757;39;20501;-79
2021/01/08 13:49:52;;;;;;;13.10;3.10;;;19.40;38.70;;;;;;3613028;32;20118;-78
2021/01/08 13:52:41;;;;;;;7.13;2.97;;;19.40;38.70;;;;;;3612467;32;20189;-78
2021/01/08 13:55:10;;;;;;;10.57;3.33;;;19.40;38.70;;;;;;3612615;32;20155;-78
2021/01/08 13:58:17;;;;;;;9.30;3.20;;;19.40;38.70;;;;;;3624843;31;20156;-78
2021/01/08 14:00:52;;;;;;;10.43;3.15;;;19.40;38.70;;;;;;3612648;32;20104;-78
2021/01/08 14:03:32;;;;;;;5.35;2.70;;;19.40;38.70;;;;;;3612099;32;20173;-78
2021/01/08 14:13:51;;;;;;;6.47;2.80;;;19.50;38.70;;;;;;3598045;32;20113;-78
2021/01/08 14:22:52;;;;;;;12.38;3.20;;;19.50;38.70;;;;;;3601855;32;20634;-78
2021/01/08 14:25:18;;;;;;;11.98;3.33;;;19.40;38.70;;;;;;3590765;32;20120;-78
2021/01/08 14:31:59;;;;;;;9.18;3.05;;;19.50;38.70;;;;;;3616079;39;20101;-78
2021/01/08 14:34:28;;;;;;;7.22;2.95;;;19.50;38.70;;;;;;3613375;32;20524;-78
2021/01/08 14:37:06;;;;;;;11.07;3.55;;;19.50;38.70;;;;;;3623014;32;20100;-77
2021/01/08 14:39:48;;;;;;;6.85;3.10;;;19.50;38.70;;;;;;3632080;31;20127;-78
2021/01/08 14:42:29;;;;;;;7.55;3.47;;;19.50;38.70;;;;;;3605717;39;20116;-78
2021/01/08 14:45:21;;;;;;;7.70;3.17;;;19.50;38.70;;;;;;3647435;31;20463;-78
2021/01/08 14:48:59;;;;;;;7.88;3.30;;;19.50;38.70;;;;;;3621940;31;20115;-79
2021/01/08 14:52:32;;;;;;;6.72;3.20;;;19.50;38.70;;;;;;3623818;39;20648;-78
2021/01/08 14:55:04;;;;;;;8.75;3.53;;;19.50;38.70;;;;;;3610966;39;20264;-79
2021/01/08 14:57:34;;;;;;;9.38;3.15;;;19.50;38.70;;;;;;3621807;32;20143;-78
2021/01/08 15:00:09;;;;;;;10.77;3.63;;;19.50;38.70;;;;;;3613986;32;20570;-78
2021/01/08 15:02:50;;;;;;;9.95;3.83;;;19.50;38.70;;;;;;3623954;39;20211;-78
2021/01/08 15:05:34;;;;;;;11.13;3.42;;;19.50;38.70;;;;;;3613698;39;20112;-79
2021/01/08 15:08:43;;;;;;;8.80;3.95;;;19.50;38.70;;;;;;3605216;32;20135;-78
2021/01/08 15:11:53;;;;;;;7.13;3.17;;;19.50;38.70;;;;;;3606272;32;20108;-78
2021/01/08 15:14:22;;;;;;;11.02;3.03;;;19.40;38.60;;;;;;3612187;32;20112;-78
2021/01/08 15:16:50;;;;;;;9.07;3.28;;;19.50;38.70;;;;;;3605184;39;20119;-79
2021/01/08 15:19:57;;;;;;;10.93;3.70;;;19.40;38.70;;;;;;3623086;39;20119;-78
2021/01/08 15:22:31;;;;;;;9.73;2.95;;;19.40;38.70;;;;;;3604652;39;20108;-78
2021/01/08 15:25:59;;;;;;;10.30;3.70;;;19.50;38.70;;;;;;3660834;31;20104;-78
2021/01/08 15:29:18;;;;;;;9.77;3.65;;;19.40;38.70;;;;;;3613446;32;20194;-78
2021/01/08 15:31:30;;;;;;;5.82;2.97;;;19.40;38.60;;;;;;3618991;32;20119;-78
2021/01/08 15:33:56;;;;;;;11.65;3.63;;;19.40;38.60;;;;;;3605287;39;20100;-78
2021/01/08 15:36:22;;;;;;;13.32;3.70;;;19.40;38.70;;;;;;3623778;32;20112;-78
2021/01/08 15:38:47;;;;;;;7.65;3.13;;;19.40;38.70;;;;;;3613643;39;20103;-78
2021/01/08 15:41:13;;;;;;;10.32;3.03;;;19.40;38.70;;;;;;3613586;39;20162;-78
2021/01/08 15:43:40;;;;;;;10.07;3.47;;;19.40;38.70;;;;;;3613862;32;20096;-78
2021/01/08 15:46:06;;;;;;;8.05;3.10;;;19.40;38.70;;;;;;3613716;32;20096;-78
2021/01/08 15:48:32;;;;;;;12.63;3.15;;;19.40;38.70;;;;;;3613423;32;20116;-78
2021/01/08 15:50:58;;;;;;;8.20;2.90;;;19.40;38.70;;;;;;3613648;39;20119;-78
2021/01/08 15:53:25;;;;;;;14.15;3.05;;;19.40;38.70;;;;;;3613712;32;20208;-78
2021/01/08 15:55:51;;;;;;;7.03;3.40;;;19.40;38.70;;;;;;3604992;32;20576;-79
2021/01/08 15:58:19;;;;;;;8.95;3.00;;;19.40;38.70;;;;;;3613531;32;20107;-78
2021/01/08 16:00:45;;;;;;;7.68;3.05;;;19.40;38.70;;;;;;3613377;39;20100;-78
2021/01/08 16:03:11;;;;;;;8.40;3.25;;;19.40;38.70;;;;;;3623486;32;20581;-78
2021/01/08 16:05:37;;;;;;;7.72;3.17;;;19.40;38.70;;;;;;3605015;39;20104;-78
2021/01/08 16:08:03;;;;;;;7.72;3.15;;;19.40;38.70;;;;;;3613545;39;20111;-78
2021/01/08 16:10:30;;;;;;;9.23;3.28;;;19.40;38.60;;;;;;3605364;39;20172;-79
2021/01/08 16:12:56;;;;;;;6.90;2.83;;;19.40;38.70;;;;;;3624074;32;20220;-78
2021/01/08 16:15:22;;;;;;;6.82;3.10;;;19.40;38.70;;;;;;3624070;39;20556;-79
2021/01/08 16:17:49;;;;;;;8.70;3.25;;;19.30;38.60;;;;;;3624342;32;20104;-78
2021/01/08 16:20:15;;;;;;;8.30;3.05;;;19.30;38.60;;;;;;3624532;32;20210;-78
2021/01/08 16:22:41;;;;;;;7.68;2.85;;;19.40;38.60;;;;;;3614059;39;20117;-78
2021/01/08 16:25:07;;;;;;;10.38;3.22;;;19.40;38.60;;;;;;3605643;39;20500;-78
2021/01/08 16:27:34;;;;;;;6.80;2.42;;;19.40;38.60;;;;;;3605058;32;20185;-78
2021/01/08 16:30:00;;;;;;;13.88;3.40;;;19.40;38.60;;;;;;3605385;32;20115;-78
2021/01/08 16:32:29;;;;;;;8.43;3.42;;;19.40;38.60;;;;;;3613585;32;20125;-78
2021/01/08 16:34:55;;;;;;;6.60;2.90;;;19.40;38.60;;;;;;3627904;31;20666;-78
2021/01/08 16:37:21;;;;;;;9.40;2.83;;;19.40;38.50;;;;;;3613306;39;20107;-78
2021/01/08 16:39:46;;;;;;;6.90;3.17;;;19.30;38.60;;;;;;3613941;39;20108;-78
2021/01/08 16:42:12;;;;;;;9.85;2.97;;;19.30;38.50;;;;;;3605141;39;20107;-78
2021/01/08 16:44:38;;;;;;;12.80;3.60;;;19.30;38.50;;;;;;3613539;39;20401;-78
2021/01/08 16:47:03;;;;;;;7.65;3.38;;;19.30;38.50;;;;;;3613629;39;20092;-78
2021/01/08 16:49:29;;;;;;;7.55;2.85;;;19.30;38.40;;;;;;3613003;39;20100;-78
2021/01/08 16:51:54;;;;;;;7.63;2.83;;;19.40;38.60;;;;;;3613536;39;20100;-78
2021/01/08 16:54:20;;;;;;;4.63;2.63;;;19.30;38.50;;;;;;3623651;39;20408;-78
2021/01/08 16:56:46;;;;;;;6.85;3.42;;;19.30;38.50;;;;;;3613514;39;20108;-78
2021/01/08 16:59:12;;;;;;;6.55;2.95;;;19.30;38.50;;;;;;3613657;39;20112;-78
2021/01/08 17:01:39;;;;;;;6.93;2.70;;;19.30;38.50;;;;;;3623404;32;20115;-78
2021/01/08 17:04:06;;;;;;;8.70;2.85;;;19.30;38.50;;;;;;3622061;32;20467;-78
2021/01/08 17:06:32;;;;;;;5.03;2.65;;;19.30;38.50;;;;;;3604847;32;20185;-78
2021/01/08 17:08:58;;;;;;;7.53;2.60;;;19.30;38.40;;;;;;3613612;32;20103;-78
2021/01/08 17:11:24;;;;;;;6.35;2.92;;;19.30;38.40;;;;;;3613330;39;20598;-78
2021/01/08 17:13:51;;;;;;;8.77;3.25;;;19.40;38.50;;;;;;3622154;39;20100;-78
2021/01/08 17:16:24;;;;;;;8.98;3.30;;;19.40;38.50;;;;;;3612938;32;20389;-78
2021/01/08 17:18:50;;;;;;;7.18;2.75;;;19.40;38.50;;;;;;3604930;32;20115;-78
2021/01/08 17:21:28;;;;;;;8.05;2.78;;;19.30;38.40;;;;;;3623426;39;20118;-78
2021/01/08 17:23:54;;;;;;;4.15;2.47;;;19.30;38.40;;;;;;3613291;32;20202;-78
2021/01/08 17:26:19;;;;;;;4.97;2.72;;;19.30;38.40;;;;;;3623146;39;20104;-78
2021/01/08 17:28:45;;;;;;;4.90;2.35;;;19.30;38.40;;;;;;3613652;39;20096;-78
2021/01/08 17:31:10;;;;;;;12.55;2.83;;;19.30;38.40;;;;;;3613108;39;20137;-78
2021/01/08 17:33:36;;;;;;;5.03;2.15;;;19.40;38.40;;;;;;3613292;39;20119;-78
2021/01/08 17:36:02;;;;;;;9.15;2.97;;;19.40;38.40;;;;;;3605001;39;20096;-78
2021/01/08 17:38:27;;;;;;;5.13;2.50;;;19.40;38.40;;;;;;3604784;39;20100;-78
2021/01/08 17:40:53;;;;;;;4.78;2.63;;;19.40;38.40;;;;;;3622971;39;20096;-78
2021/01/08 17:43:18;;;;;;;6.80;2.72;;;19.30;38.30;;;;;;3613291;39;20100;-78
2021/01/08 17:45:47;;;;;;;5.20;2.60;;;19.30;38.30;;;;;;3613702;39;20218;-78
2021/01/08 17:48:12;;;;;;;4.85;2.85;;;19.40;38.40;;;;;;3612645;32;20104;-78
2021/01/08 17:50:40;;;;;;;6.45;2.40;;;19.40;38.30;;;;;;3604208;39;20169;-78
2021/01/08 17:53:05;;;;;;;4.78;2.40;;;19.30;38.30;;;;;;3612646;32;20119;-78
2021/01/08 17:55:31;;;;;;;5.45;2.53;;;19.30;38.30;;;;;;3612541;39;20104;-78
2021/01/08 17:57:56;;;;;;;6.68;2.97;;;19.30;38.30;;;;;;3622490;39;20470;-79
2021/01/08 18:00:23;;;;;;;4.05;2.58;;;19.40;38.40;;;;;;3604346;39;20111;-78
2021/01/08 18:02:48;;;;;;;6.55;2.55;;;19.30;38.30;;;;;;3613663;32;20173;-78
2021/01/08 18:05:15;;;;;;;5.22;2.20;;;19.30;38.30;;;;;;3614509;39;20467;-78
2021/01/08 18:07:40;;;;;;;5.88;2.55;;;19.30;38.30;;;;;;3614437;39;20458;-78
2021/01/08 18:10:08;;;;;;;3.85;2.20;;;19.30;38.30;;;;;;3605805;39;20100;-78
2021/01/08 18:12:34;;;;;;;6.72;2.47;;;19.30;38.20;;;;;;3614557;32;20108;-78
2021/01/08 18:15:02;;;;;;;4.22;2.60;;;19.30;38.30;;;;;;3606023;32;20108;-78
2021/01/08 18:17:28;;;;;;;10.57;3.00;;;19.30;38.30;;;;;;3605931;39;20104;-78
2021/01/08 18:19:54;;;;;;;6.00;2.92;;;19.30;38.30;;;;;;3614153;39;20188;-78
2021/01/08 18:22:19;;;;;;;5.25;2.63;;;19.30;38.20;;;;;;3614113;39;20172;-78
2021/01/08 18:24:45;;;;;;;6.70;2.65;;;19.30;38.10;;;;;;3614347;39;20178;-78
2021/01/08 18:27:14;;;;;;;5.07;2.45;;;19.30;38.20;;;;;;3605823;32;20177;-78
2021/01/08 18:29:39;;;;;;;2.47;1.80;;;19.30;38.20;;;;;;3605663;32;20116;-78
2021/01/08 18:32:06;;;;;;;2.80;1.88;;;19.30;38.20;;;;;;3614022;39;20123;-78
2021/01/08 18:34:31;;;;;;;4.00;2.30;;;19.30;38.20;;;;;;3614206;32;20108;-78
2021/01/08 18:36:57;;;;;;;6.18;2.65;;;19.40;38.20;;;;;;3605730;39;20103;-78
2021/01/08 18:39:23;;;;;;;4.15;2.20;;;19.30;38.20;;;;;;3605941;39;20107;-78
2021/01/08 18:41:48;;;;;;;5.85;2.42;;;19.30;38.20;;;;;;3605736;39;20448;-78
2021/01/08 18:44:15;;;;;;;5.05;1.98;;;19.40;38.20;;;;;;3615219;39;20103;-77
2021/01/08 18:46:41;;;;;;;6.93;2.30;;;19.30;38.70;;;;;;3615178;32;20111;-78
2021/01/08 18:49:08;;;;;;;6.80;2.53;;;19.30;38.20;;;;;;3624709;32;20620;-78
2021/01/08 18:51:34;;;;;;;2.70;2.40;;;19.30;38.20;;;;;;3615105;32;20115;-78
2021/01/08 18:53:59;;;;;;;4.13;1.95;;;19.30;38.20;;;;;;3605937;32;20543;-78
2021/01/08 18:56:38;;;;;;;3.90;2.28;;;19.30;38.20;;;;;;3614583;39;20096;-78
2021/01/08 18:59:04;;;;;;;3.38;1.90;;;19.30;38.20;;;;;;3624106;32;20108;-78
2021/01/08 19:01:30;;;;;;;3.78;1.90;;;19.40;38.20;;;;;;3614670;39;20162;-78
2021/01/08 19:03:57;;;;;;;2.83;1.92;;;19.30;38.20;;;;;;3614777;32;20118;-78
2021/01/08 19:06:29;;;;;;;6.80;2.70;;;19.30;38.10;;;;;;3614470;32;20181;-78
2021/01/08 19:08:56;;;;;;;6.15;2.35;;;19.30;38.20;;;;;;3614474;32;20096;-78
2021/01/08 19:11:22;;;;;;;4.63;2.03;;;19.30;38.20;;;;;;3614429;32;20112;-77
2021/01/08 19:13:47;;;;;;;3.15;2.10;;;19.40;38.20;;;;;;3614391;39;20100;-78
2021/01/08 19:16:14;;;;;;;4.75;2.13;;;19.30;38.20;;;;;;3605874;39;20115;-78
2021/01/08 19:18:39;;;;;;;3.33;1.98;;;19.30;38.10;;;;;;3623998;39;20134;-78
2021/01/08 19:21:06;;;;;;;5.65;2.30;;;19.30;38.10;;;;;;3614403;39;20648;-78
2021/01/08 19:23:32;;;;;;;3.40;2.03;;;19.30;38.10;;;;;;3614107;32;20107;-78
2021/01/08 19:25:58;;;;;;;3.13;1.90;;;19.30;38.00;;;;;;3614058;39;20170;-78
2021/01/08 19:28:25;;;;;;;5.60;2.17;;;19.30;38.10;;;;;;3613857;32;20447;-78
2021/01/08 19:30:51;;;;;;;3.88;1.90;;;19.30;38.10;;;;;;3623754;39;20246;-78
2021/01/08 19:33:17;;;;;;;4.63;2.08;;;19.30;38.10;;;;;;3605136;32;20590;-78
2021/01/08 19:35:46;;;;;;;3.33;1.75;;;19.30;38.10;;;;;;3605691;39;20104;-78
2021/01/08 19:38:12;;;;;;;3.08;1.98;;;19.30;38.10;;;;;;3623529;32;20144;-78
2021/01/08 19:40:38;;;;;;;4.93;2.08;;;19.30;38.10;;;;;;3636575;31;20131;-78
2021/01/08 19:43:03;;;;;;;2.70;1.98;;;19.30;38.10;;;;;;3605065;39;20096;-78
2021/01/08 19:45:29;;;;;;;2.75;1.80;;;19.30;38.00;;;;;;3613809;39;20148;-78
2021/01/08 19:47:54;;;;;;;3.70;1.80;;;19.30;38.00;;;;;;3605361;39;20108;-78
2021/01/08 19:50:20;;;;;;;2.55;1.92;;;19.30;38.00;;;;;;3613617;39;20112;-78
2021/01/08 19:52:47;;;;;;;2.92;1.83;;;19.30;38.00;;;;;;3613958;39;20100;-78
2021/01/08 19:55:14;;;;;;;3.13;1.63;;;19.30;38.00;;;;;;3613661;32;20648;-78
2021/01/08 19:57:41;;;;;;;6.07;2.33;;;19.30;38.10;;;;;;3613421;32;20125;-79
2021/01/08 20:00:07;;;;;;;3.65;1.90;;;19.30;38.10;;;;;;3613503;39;20100;-78
2021/01/08 20:02:37;;;;;;;2.72;1.92;;;19.30;38.10;;;;;;3623224;39;20475;-79
2021/01/08 20:05:03;;;;;;;2.30;1.83;;;19.30;38.00;;;;;;3604878;39;20104;-78
2021/01/08 20:07:28;;;;;;;4.68;2.20;;;19.30;38.00;;;;;;3613380;39;20119;-78
2021/01/08 20:09:54;;;;;;;2.15;1.70;;;19.20;38.00;;;;;;3613297;39;20099;-78
2021/01/08 20:12:20;;;;;;;2.22;1.88;;;19.20;37.90;;;;;;3604770;39;20541;-78
2021/01/08 20:14:46;;;;;;;4.68;1.73;;;19.20;38.00;;;;;;3613793;39;20176;-79
2021/01/08 20:17:11;;;;;;;2.95;1.83;;;19.20;38.10;;;;;;3623366;39;20103;-78
2021/01/08 20:19:37;;;;;;;1.90;1.70;;;19.20;38.10;;;;;;3605094;39;20435;-78
2021/01/08 20:22:02;;;;;;;3.53;1.52;;;19.20;38.10;;;;;;3604804;39;20107;-78
2021/01/08 20:24:28;;;;;;;4.05;2.15;;;19.20;38.20;;;;;;3612919;39;20107;-78
2021/01/08 20:26:54;;;;;;;2.88;1.85;;;19.20;38.20;;;;;;3604935;39;20115;-78
2021/01/08 20:29:20;;;;;;;2.65;1.65;;;19.20;38.10;;;;;;3623404;32;20120;-79
2021/01/08 20:31:52;;;;;;;4.10;1.73;;;19.20;38.10;;;;;;3613137;39;20100;-78
2021/01/08 20:34:19;;;;;;;4.18;1.85;;;19.20;38.20;;;;;;3604819;32;20436;-78
2021/01/08 20:36:45;;;;;;;2.65;1.67;;;19.10;38.00;;;;;;3613285;32;20108;-79
2021/01/08 20:39:11;;;;;;;2.65;1.65;;;19.20;38.10;;;;;;3604648;32;20112;-78
2021/01/08 20:41:38;;;;;;;1.95;1.75;;;19.20;38.20;;;;;;3613091;32;20104;-78
2021/01/08 20:44:04;;;;;;;1.95;1.60;;;19.20;38.10;;;;;;3622847;32;20151;-78
2021/01/08 20:46:30;;;;;;;3.17;2.08;;;19.20;38.10;;;;;;3612985;32;20467;-78
2021/01/08 20:48:57;;;;;;;2.25;1.90;;;19.20;38.10;;;;;;3604498;32;20107;-78
2021/01/08 20:51:24;;;;;;;1.85;1.63;;;19.20;37.90;;;;;;3613164;32;20108;-78
2021/01/08 20:53:49;;;;;;;2.85;1.90;;;19.20;37.90;;;;;;3613127;32;20617;-78
2021/01/08 20:56:15;;;;;;;1.73;1.60;;;19.20;38.00;;;;;;3612896;39;20140;-78
2021/01/08 20:58:41;;;;;;;2.92;1.75;;;19.20;38.10;;;;;;3604593;39;20096;-78
2021/01/08 21:01:06;;;;;;;2.10;1.50;;;19.20;37.90;;;;;;3613278;39;20116;-78
2021/01/08 21:03:33;;;;;;;2.60;1.65;;;19.20;37.90;;;;;;3604557;39;20115;-78
2021/01/08 21:05:59;;;;;;;1.52;1.42;;;19.20;38.00;;;;;;3622959;31;20105;-79
2021/01/08 21:08:24;;;;;;;2.53;1.40;;;19.20;37.80;;;;;;3613127;39;20104;-78
2021/01/08 21:10:50;;;;;;;3.20;1.85;;;19.20;38.50;;;;;;3613107;39;20664;-78
2021/01/08 21:13:16;;;;;;;2.35;1.70;;;19.20;37.90;;;;;;3605468;39;20162;-78
2021/01/08 21:15:42;;;;;;;2.95;1.70;;;19.20;37.80;;;;;;3605719;39;20103;-78
2021/01/08 21:18:08;;;;;;;1.70;1.50;;;19.20;37.80;;;;;;3614153;39;20543;-78
2021/01/08 21:20:33;;;;;;;1.92;1.65;;;19.20;37.90;;;;;;3614279;39;20107;-78
2021/01/08 21:23:00;;;;;;;2.28;1.70;;;19.20;37.90;;;;;;3613481;39;20112;-78
2021/01/08 21:25:25;;;;;;;1.80;1.70;;;19.20;37.90;;;;;;3613532;32;20135;-78
2021/01/08 21:27:52;;;;;;;1.92;1.50;;;19.20;37.90;;;;;;3613195;39;20104;-78
2021/01/08 21:30:20;;;;;;;2.63;2.00;;;19.20;38.00;;;;;;3604938;32;20096;-78
2021/01/08 21:32:47;;;;;;;3.20;2.05;;;19.20;37.90;;;;;;3604853;32;20104;-78
2021/01/08 21:35:14;;;;;;;2.55;1.80;;;19.20;37.90;;;;;;3605140;32;20111;-78
2021/01/08 21:37:41;;;;;;;3.90;1.98;;;19.20;37.80;;;;;;3613247;32;20099;-78
2021/01/08 21:40:09;;;;;;;2.47;1.52;;;19.20;37.80;;;;;;3613219;32;20133;-78
2021/01/08 21:42:35;;;;;;;3.15;1.92;;;19.20;37.90;;;;;;3621173;32;20544;-78
2021/01/08 21:45:02;;;;;;;2.00;1.80;;;19.20;38.00;;;;;;3613562;39;20096;-79
2021/01/08 21:47:32;;;;;;;1.88;1.50;;;19.20;37.90;;;;;;3604810;39;20108;-78
2021/01/08 21:49:57;;;;;;;2.65;1.70;;;19.20;37.90;;;;;;3613074;32;20120;-78
2021/01/08 21:52:26;;;;;;;2.97;1.63;;;19.20;38.00;;;;;;3613162;39;20224;-78
2021/01/08 21:54:53;;;;;;;1.55;1.35;;;19.20;37.90;;;;;;3710330;31;20104;-78
2021/01/08 21:57:21;;;;;;;2.22;1.88;;;19.20;37.90;;;;;;3622883;31;20136;-78
2021/01/08 21:59:47;;;;;;;2.95;1.70;;;19.20;37.80;;;;;;3604649;39;20139;-78
2021/01/08 22:02:13;;;;;;;2.25;1.50;;;19.20;38.00;;;;;;3622832;31;20118;-78
2021/01/08 22:04:38;;;;;;;1.75;1.65;;;19.20;38.00;;;;;;3604895;39;20097;-79
2021/01/08 22:07:05;;;;;;;3.05;1.63;;;19.20;38.00;;;;;;3604673;39;20479;-79
2021/01/08 22:09:31;;;;;;;1.45;1.33;;;19.20;38.00;;;;;;3613315;32;20264;-78
2021/01/08 22:11:56;;;;;;;2.60;1.80;;;19.20;38.00;;;;;;3612902;39;20128;-78
2021/01/08 22:14:22;;;;;;;1.85;1.45;;;19.20;37.90;;;;;;3613162;39;20096;-78
2021/01/08 22:16:52;;;;;;;1.92;1.73;;;19.20;38.00;;;;;;3622534;39;20148;-78
2021/01/08 22:19:17;;;;;;;3.28;1.70;;;19.20;38.00;;;;;;3604517;32;20112;-78
2021/01/08 22:21:43;;;;;;;1.83;1.58;;;19.20;38.00;;;;;;3622530;39;20108;-78
2021/01/08 22:24:08;;;;;;;1.67;1.38;;;19.20;38.00;;;;;;3612633;39;20096;-78
2021/01/08 22:26:35;;;;;;;1.40;1.30;;;19.20;38.40;;;;;;3622848;39;20100;-79
2021/01/08 22:29:00;;;;;;;3.22;1.48;;;19.20;37.90;;;;;;3621947;32;20140;-78
2021/01/08 22:31:34;;;;;;;1.75;1.55;;;19.20;37.90;;;;;;3604030;39;20107;-79
2021/01/08 22:34:00;;;;;;;1.75;1.60;;;19.20;37.90;;;;;;3653264;32;20120;-78
2021/01/08 22:36:26;;;;;;;1.52;1.30;;;19.20;37.90;;;;;;3612488;32;20435;-78
2021/01/08 22:38:52;;;;;;;1.48;1.38;;;19.20;37.90;;;;;;3612725;39;20098;-78
2021/01/08 22:41:18;;;;;;;1.67;1.58;;;19.20;37.90;;;;;;3622594;39;20104;-78
2021/01/08 22:43:44;;;;;;;3.33;1.67;;;19.20;37.90;;;;;;3603763;32;20184;-79
2021/01/08 22:46:18;;;;;;;2.25;1.60;;;19.20;37.80;;;;;;3612173;39;20120;-79
2021/01/08 22:48:44;;;;;;;2.92;1.77;;;19.20;37.90;;;;;;3604783;32;20100;-78
2021/01/08 22:51:19;;;;;;;2.55;1.70;;;19.20;37.90;;;;;;3605716;32;20096;-79
2021/01/08 22:53:46;;;;;;;2.55;1.70;;;19.20;38.00;;;;;;3623866;32;20135;-79
2021/01/08 22:56:23;;;;;;;2.63;1.63;;;19.20;37.90;;;;;;3605815;32;20165;-79
2021/01/08 22:58:50;;;;;;;1.80;1.70;;;19.20;37.90;;;;;;3604779;32;20108;-78
2021/01/08 23:01:17;;;;;;;2.17;1.20;;;19.20;38.00;;;;;;3614346;32;20136;-79
2021/01/08 23:03:43;;;;;;;1.98;1.77;;;19.20;37.90;;;;;;3612991;32;20104;-79
2021/01/08 23:06:08;;;;;;;3.00;1.70;;;19.20;37.90;;;;;;3614199;39;20149;-79
2021/01/08 23:08:34;;;;;;;1.60;1.45;;;19.20;37.70;;;;;;3623667;39;20177;-78
2021/01/08 23:10:59;;;;;;;1.50;1.25;;;19.20;37.90;;;;;;3605549;39;20140;-79
2021/01/08 23:13:25;;;;;;;1.50;1.35;;;19.20;37.90;;;;;;3614081;39;20096;-78
2021/01/08 23:15:51;;;;;;;1.63;1.50;;;19.20;38.00;;;;;;3614065;39;20119;-79
2021/01/08 23:18:17;;;;;;;2.00;1.60;;;19.20;37.90;;;;;;3613898;39;20120;-78
2021/01/08 23:20:43;;;;;;;1.65;1.55;;;19.20;37.90;;;;;;3613782;39;20108;-79
2021/01/08 23:23:08;;;;;;;2.17;1.67;;;19.20;37.90;;;;;;3605255;39;20138;-78
2021/01/08 23:25:34;;;;;;;2.08;1.88;;;19.20;37.80;;;;;;3623517;39;20097;-79
2021/01/08 23:28:00;;;;;;;3.05;1.80;;;19.20;37.80;;;;;;3613942;39;20667;-79
2021/01/08 23:30:25;;;;;;;2.25;1.45;;;19.20;37.80;;;;;;3605255;39;20633;-79
2021/01/08 23:32:52;;;;;;;2.63;1.83;;;19.20;37.90;;;;;;3623310;39;20107;-78
2021/01/08 23:35:20;;;;;;;2.45;1.58;;;19.20;37.90;;;;;;3613679;32;20175;-78
2021/01/08 23:37:47;;;;;;;1.88;1.63;;;19.20;37.90;;;;;;3605125;32;20107;-79
2021/01/08 23:40:17;;;;;;;1.67;1.58;;;19.20;37.80;;;;;;3613808;32;20543;-78
2021/01/08 23:42:43;;;;;;;1.93;1.60;;;19.20;37.90;;;;;;3605363;32;20639;-79
2021/01/08 23:45:11;;;;;;;1.60;1.50;;;19.20;37.90;;;;;;3605477;39;20103;-78
2021/01/08 23:47:45;;;;;;;1.70;1.50;;;19.20;37.90;;;;;;3613948;32;20547;-78
2021/01/08 23:50:14;;;;;;;1.88;1.67;;;19.20;37.80;;;;;;3613988;32;20168;-78
2021/01/08 23:52:40;;;;;;;2.22;1.50;;;19.20;37.90;;;;;;3623384;39;20116;-78
2021/01/08 23:55:09;;;;;;;1.67;1.58;;;19.20;37.80;;;;;;3623431;39;20104;-78
2021/01/08 23:57:35;;;;;;;3.17;1.63;;;19.20;37.80;;;;;;3613469;32;20144;-78
